createdAt,value
2017-09-06T00:01:02.269Z,18.30
2017-09-06T00:03:29.884Z,18.30
2017-09-06T00:05:57.445Z,18.30
2017-09-06T00:08:25.020Z,18.30
2017-09-06T00:10:52.627Z,18.30
2017-09-06T00:13:21.019Z,18.30
2017-09-06T00:15:48.591Z,18.20
2017-09-06T00:18:16.181Z,18.20
2017-09-06T00:20:43.738Z,18.30
2017-09-06T00:23:12.157Z,18.30
2017-09-06T00:25:39.755Z,18.30
2017-09-06T00:28:07.344Z,18.30
2017-09-06T00:30:34.931Z,18.30
2017-09-06T00:33:02.521Z,18.30
2017-09-06T00:35:30.125Z,18.20
2017-09-06T00:37:57.705Z,18.20
2017-09-06T00:40:25.302Z,18.20
2017-09-06T00:42:52.894Z,18.20
2017-09-06T00:45:20.483Z,18.20
2017-09-06T00:47:48.069Z,18.20
2017-09-06T00:50:15.639Z,18.20
2017-09-06T00:52:43.216Z,18.20
2017-09-06T00:55:10.831Z,18.20
2017-09-06T00:57:38.392Z,18.10
2017-09-06T01:00:05.958Z,18.10
2017-09-06T01:02:33.548Z,18.10
2017-09-06T01:05:01.132Z,18.10
2017-09-06T01:07:28.707Z,18.10
2017-09-06T01:09:56.294Z,18.10
2017-09-06T01:12:23.867Z,18.10
2017-09-06T01:14:51.443Z,18.10
2017-09-06T01:17:19.041Z,18.00
2017-09-06T01:19:46.626Z,18.00
2017-09-06T01:22:14.199Z,18.00
2017-09-06T01:24:41.795Z,18.00
2017-09-06T01:27:09.378Z,18.00
2017-09-06T01:29:36.951Z,18.00
2017-09-06T01:32:04.569Z,18.00
2017-09-06T01:34:32.154Z,18.00
2017-09-06T01:36:59.740Z,18.00
2017-09-06T01:39:27.358Z,18.00
2017-09-06T01:41:54.933Z,17.90
2017-09-06T01:44:22.504Z,17.80
2017-09-06T01:46:50.107Z,17.80
2017-09-06T01:49:17.706Z,17.70
2017-09-06T01:51:45.278Z,17.70
2017-09-06T01:54:12.890Z,17.60
2017-09-06T01:56:40.473Z,17.50
2017-09-06T01:59:08.064Z,17.40
2017-09-06T02:01:35.746Z,17.40
2017-09-06T02:04:15.290Z,17.30
2017-09-06T02:06:42.910Z,17.30
2017-09-06T02:09:10.474Z,17.30
2017-09-06T02:11:38.040Z,17.30
2017-09-06T02:14:05.632Z,17.40
2017-09-06T02:16:33.218Z,17.40
2017-09-06T02:19:00.801Z,17.50
2017-09-06T02:21:28.366Z,17.50
2017-09-06T02:23:55.957Z,17.50
2017-09-06T02:26:23.566Z,17.50
2017-09-06T02:28:51.150Z,17.50
2017-09-06T02:31:18.769Z,17.50
2017-09-06T02:38:46.002Z,17.40
2017-09-06T02:41:13.575Z,17.30
2017-09-06T02:43:41.181Z,17.30
2017-09-06T02:46:08.754Z,17.30
2017-09-06T02:48:36.331Z,17.20
2017-09-06T02:51:03.930Z,17.20
2017-09-06T02:53:31.499Z,17.10
2017-09-06T02:55:59.095Z,17.10
2017-09-06T02:58:26.677Z,17.10
2017-09-06T03:00:54.279Z,17.00
2017-09-06T03:03:21.845Z,17.00
2017-09-06T03:05:49.449Z,16.90
2017-09-06T03:08:17.015Z,16.90
2017-09-06T03:10:44.626Z,16.90
2017-09-06T03:13:12.216Z,16.90
2017-09-06T03:15:39.787Z,16.90
2017-09-06T03:18:07.385Z,16.90
2017-09-06T03:20:34.957Z,17.00
2017-09-06T03:23:02.568Z,17.00
2017-09-06T03:25:30.125Z,17.00
2017-09-06T03:27:57.717Z,17.00
2017-09-06T03:30:25.299Z,17.10
2017-09-06T03:32:52.871Z,17.10
2017-09-06T03:35:20.457Z,17.20
2017-09-06T03:37:48.035Z,17.20
2017-09-06T03:40:15.623Z,17.30
2017-09-06T03:42:43.201Z,17.30
2017-09-06T03:45:10.783Z,17.30
2017-09-06T03:47:38.375Z,17.40
2017-09-06T03:50:05.941Z,17.40
2017-09-06T03:52:33.543Z,17.40
2017-09-06T03:55:01.131Z,17.40
2017-09-06T03:57:28.702Z,17.40
2017-09-06T03:59:56.282Z,17.50
2017-09-06T04:02:23.840Z,17.40
2017-09-06T04:04:51.445Z,17.40
2017-09-06T04:07:19.015Z,17.40
2017-09-06T04:09:46.624Z,17.30
2017-09-06T04:12:14.191Z,17.30
2017-09-06T04:14:41.756Z,17.30
2017-09-06T04:17:09.370Z,17.30
2017-09-06T04:19:36.943Z,17.30
2017-09-06T04:22:04.553Z,17.20
2017-09-06T04:24:32.145Z,17.20
2017-09-06T04:26:59.742Z,17.20
2017-09-06T04:29:27.326Z,17.20
2017-09-06T04:31:55.664Z,17.10
2017-09-06T04:34:23.249Z,17.10
2017-09-06T04:36:50.800Z,17.00
2017-09-06T04:39:18.373Z,17.00
2017-09-06T04:41:45.926Z,17.00
2017-09-06T04:44:13.526Z,17.00
2017-09-06T04:46:41.879Z,17.10
2017-09-06T04:49:09.505Z,17.10
2017-09-06T04:51:37.115Z,17.20
2017-09-06T04:54:04.688Z,17.20
2017-09-06T04:56:32.293Z,17.20
2017-09-06T04:58:59.863Z,17.30
2017-09-06T05:01:27.467Z,17.30
2017-09-06T05:03:55.040Z,17.30
2017-09-06T05:06:22.909Z,17.20
2017-09-06T05:08:50.502Z,17.20
2017-09-06T05:11:18.072Z,17.20
2017-09-06T05:13:45.675Z,17.10
2017-09-06T05:16:13.243Z,17.10
2017-09-06T05:18:40.837Z,17.00
2017-09-06T05:21:08.447Z,16.90
2017-09-06T05:23:36.015Z,16.80
2017-09-06T05:26:03.629Z,16.80
2017-09-06T05:28:31.188Z,16.80
2017-09-06T05:30:58.817Z,16.80
2017-09-06T05:33:26.391Z,16.90
2017-09-06T05:35:53.963Z,17.00
2017-09-06T05:38:21.549Z,17.00
2017-09-06T05:40:49.123Z,17.10
2017-09-06T05:43:16.728Z,17.10
2017-09-06T05:45:44.308Z,17.10
2017-09-06T05:48:11.883Z,17.10
2017-09-06T05:50:39.476Z,17.10
2017-09-06T05:53:07.054Z,17.00
2017-09-06T05:55:34.711Z,17.00
2017-09-06T05:58:02.276Z,17.00
2017-09-06T06:00:29.870Z,17.00
2017-09-06T06:02:57.449Z,17.00
2017-09-06T06:05:25.012Z,16.90
2017-09-06T06:07:52.607Z,16.90
2017-09-06T06:10:20.184Z,16.90
2017-09-06T06:12:47.741Z,17.00
2017-09-06T06:15:15.321Z,17.00
2017-09-06T06:17:42.907Z,17.00
2017-09-06T06:20:10.521Z,17.00
2017-09-06T06:22:38.110Z,17.00
2017-09-06T06:25:05.699Z,17.00
2017-09-06T06:27:33.288Z,17.00
2017-09-06T06:30:00.858Z,17.00
2017-09-06T06:32:28.463Z,17.10
2017-09-06T06:34:56.034Z,17.20
2017-09-06T06:37:23.625Z,17.20
2017-09-06T06:39:51.226Z,17.30
2017-09-06T06:42:18.786Z,17.30
2017-09-06T06:44:46.392Z,17.50
2017-09-06T06:47:13.961Z,17.70
2017-09-06T06:49:41.539Z,17.80
2017-09-06T06:52:09.151Z,17.80
2017-09-06T06:54:36.740Z,17.80
2017-09-06T06:57:04.362Z,17.70
2017-09-06T06:59:31.925Z,17.80
2017-09-06T07:01:59.503Z,17.80
2017-09-06T07:04:27.082Z,17.70
2017-09-06T07:06:54.659Z,17.60
2017-09-06T07:09:22.264Z,17.50
2017-09-06T07:11:49.835Z,17.40
2017-09-06T07:14:17.397Z,17.40
2017-09-06T07:16:45.005Z,17.30
2017-09-06T07:19:12.592Z,17.30
2017-09-06T07:21:40.195Z,17.30
2017-09-06T07:24:07.791Z,17.40
2017-09-06T07:26:35.380Z,17.30
2017-09-06T07:29:02.999Z,17.40
2017-09-06T07:31:30.609Z,17.30
2017-09-06T07:33:58.233Z,17.20
2017-09-06T07:36:25.830Z,17.10
2017-09-06T07:38:53.417Z,17.20
2017-09-06T07:41:21.026Z,17.20
2017-09-06T07:43:48.617Z,17.20
2017-09-06T07:46:16.237Z,17.10
2017-09-06T07:48:43.822Z,17.10
2017-09-06T07:51:11.405Z,17.10
2017-09-06T07:53:39.009Z,17.00
2017-09-06T07:56:06.617Z,17.00
2017-09-06T07:58:34.237Z,17.00
2017-09-06T08:01:01.850Z,17.00
2017-09-06T08:03:30.201Z,17.20
2017-09-06T08:05:57.812Z,17.20
2017-09-06T08:08:25.417Z,17.10
2017-09-06T08:10:53.068Z,17.00
2017-09-06T08:13:20.683Z,16.90
2017-09-06T08:15:49.050Z,17.00
2017-09-06T08:18:16.700Z,17.00
2017-09-06T08:20:44.351Z,17.00
2017-09-06T08:23:11.991Z,17.10
2017-09-06T08:25:39.582Z,17.10
2017-09-06T08:28:07.173Z,17.10
2017-09-06T08:30:35.546Z,17.30
2017-09-06T08:33:03.139Z,17.30
2017-09-06T08:35:30.765Z,17.50
2017-09-06T08:37:59.125Z,17.30
2017-09-06T08:40:26.718Z,17.20
2017-09-06T08:42:54.322Z,17.10
2017-09-06T08:45:22.109Z,17.20
2017-09-06T08:47:49.786Z,17.10
2017-09-06T08:50:17.397Z,17.20
2017-09-06T08:52:44.993Z,17.20
2017-09-06T08:55:12.634Z,17.10
2017-09-06T08:57:40.229Z,17.00
2017-09-06T09:00:07.853Z,17.00
2017-09-06T09:02:35.558Z,16.90
2017-09-06T09:05:03.155Z,16.80
2017-09-06T09:07:31.533Z,16.70
2017-09-06T09:09:59.890Z,16.80
2017-09-06T09:12:27.523Z,16.70
2017-09-06T09:14:55.114Z,16.80
2017-09-06T09:17:22.715Z,17.00
2017-09-06T09:19:51.618Z,17.50
2017-09-06T09:22:20.098Z,17.50
2017-09-06T09:24:47.737Z,17.50
2017-09-06T09:27:15.433Z,17.40
2017-09-06T09:29:43.046Z,17.30
2017-09-06T09:32:10.657Z,17.20
2017-09-06T09:34:38.258Z,17.20
2017-09-06T09:37:05.886Z,17.10
2017-09-06T09:39:33.481Z,17.10
2017-09-06T09:42:01.083Z,17.00
2017-09-06T09:44:29.479Z,16.80
2017-09-06T09:46:57.887Z,16.70
2017-09-06T09:49:25.549Z,16.60
2017-09-06T09:51:53.134Z,16.60
2017-09-06T09:54:20.745Z,16.80
2017-09-06T09:56:48.369Z,17.00
2017-09-06T09:59:15.970Z,17.30
2017-09-06T10:01:43.594Z,17.60
2017-09-06T10:04:11.177Z,17.90
2017-09-06T10:06:38.761Z,17.80
2017-09-06T10:09:06.375Z,17.90
2017-09-06T10:11:33.953Z,18.00
2017-09-06T10:14:01.570Z,18.00
2017-09-06T10:16:29.162Z,17.90
2017-09-06T10:18:56.749Z,18.10
2017-09-06T10:21:24.362Z,18.10
2017-09-06T10:23:51.952Z,17.90
2017-09-06T10:26:19.575Z,17.80
2017-09-06T10:28:47.161Z,17.70
2017-09-06T10:31:14.742Z,17.90
2017-09-06T10:33:42.353Z,17.90
2017-09-06T10:36:09.943Z,17.90
2017-09-06T10:38:37.569Z,17.90
2017-09-06T10:41:05.169Z,18.10
2017-09-06T10:43:32.744Z,17.90
2017-09-06T10:46:00.330Z,18.30
2017-09-06T10:48:27.918Z,18.50
2017-09-06T10:50:55.528Z,18.50
2017-09-06T10:53:23.121Z,18.50
2017-09-06T10:55:50.728Z,18.70
2017-09-06T10:58:18.346Z,18.60
2017-09-06T11:00:45.917Z,18.70
2017-09-06T11:03:13.527Z,18.70
2017-09-06T11:05:41.097Z,18.40
2017-09-06T11:08:08.670Z,18.60
2017-09-06T11:10:36.303Z,18.80
2017-09-06T11:13:03.883Z,19.00
2017-09-06T11:15:31.443Z,19.20
2017-09-06T11:17:59.054Z,19.00
2017-09-06T11:20:26.614Z,18.90
2017-09-06T11:22:54.232Z,19.00
2017-09-06T11:25:21.786Z,19.20
2017-09-06T11:27:49.345Z,19.30
2017-09-06T11:30:16.945Z,19.40
2017-09-06T11:32:44.518Z,19.20
2017-09-06T11:35:12.097Z,19.10
2017-09-06T11:37:39.667Z,19.00
2017-09-06T11:40:07.305Z,18.90
2017-09-06T11:42:34.911Z,18.70
2017-09-06T11:45:02.510Z,18.80
2017-09-06T11:47:30.088Z,19.00
2017-09-06T11:49:57.663Z,19.20
2017-09-06T11:52:25.255Z,19.30
2017-09-06T11:54:52.836Z,19.00
2017-09-06T11:57:20.438Z,18.90
2017-09-06T11:59:48.008Z,18.60
2017-09-06T12:02:15.586Z,18.60
2017-09-06T12:04:43.143Z,18.70
2017-09-06T12:07:10.743Z,18.90
2017-09-06T12:09:38.334Z,19.20
2017-09-06T12:12:05.947Z,19.10
2017-09-06T12:14:33.537Z,18.90
2017-09-06T12:17:01.123Z,19.10
2017-09-06T12:19:28.696Z,19.30
2017-09-06T12:21:56.301Z,19.30
2017-09-06T12:24:23.876Z,19.10
2017-09-06T12:26:51.477Z,19.10
2017-09-06T12:29:19.032Z,19.20
2017-09-06T12:31:46.647Z,19.50
2017-09-06T12:34:14.216Z,19.60
2017-09-06T12:36:41.769Z,19.50
2017-09-06T12:39:10.130Z,19.80
2017-09-06T12:41:37.733Z,19.80
2017-09-06T12:44:05.317Z,19.80
2017-09-06T12:46:32.885Z,19.70
2017-09-06T12:49:00.471Z,19.70
2017-09-06T12:51:28.029Z,19.70
2017-09-06T12:53:55.625Z,19.70
2017-09-06T12:56:23.217Z,19.80
2017-09-06T12:58:50.796Z,19.80
2017-09-06T13:01:18.400Z,19.80
2017-09-06T13:03:45.968Z,19.60
2017-09-06T13:06:13.559Z,19.40
2017-09-06T13:08:41.127Z,19.50
2017-09-06T13:11:08.733Z,19.70
2017-09-06T13:13:36.322Z,19.70
2017-09-06T13:16:03.911Z,19.70
2017-09-06T13:18:31.499Z,19.60
2017-09-06T13:20:59.077Z,19.60
2017-09-06T13:23:26.629Z,19.60
2017-09-06T13:25:54.224Z,19.70
2017-09-06T13:28:21.810Z,19.90
2017-09-06T13:30:49.618Z,19.80
2017-09-06T13:33:17.246Z,20.00
2017-09-06T13:35:44.809Z,20.20
2017-09-06T13:38:12.426Z,20.10
2017-09-06T13:40:40.036Z,20.10
2017-09-06T13:43:07.660Z,20.20
2017-09-06T13:45:35.263Z,20.30
2017-09-06T13:48:02.861Z,20.30
2017-09-06T13:50:30.444Z,20.20
2017-09-06T13:52:58.020Z,20.00
2017-09-06T13:55:25.621Z,19.90
2017-09-06T13:57:53.177Z,19.60
2017-09-06T14:00:20.772Z,19.30
2017-09-06T14:02:48.327Z,19.10
2017-09-06T14:05:15.916Z,19.10
2017-09-06T14:07:43.509Z,19.20
2017-09-06T14:10:11.845Z,19.10
2017-09-06T14:12:39.448Z,19.10
2017-09-06T14:15:07.023Z,19.00
2017-09-06T14:17:35.341Z,18.90
2017-09-06T14:20:02.953Z,18.90
2017-09-06T14:22:30.509Z,19.00
2017-09-06T14:24:58.090Z,19.00
2017-09-06T14:27:25.669Z,18.90
2017-09-06T14:29:53.278Z,19.00
2017-09-06T14:32:20.848Z,19.00
2017-09-06T14:34:48.405Z,19.00
2017-09-06T14:37:15.982Z,18.80
2017-09-06T14:39:43.573Z,18.70
2017-09-06T14:42:11.167Z,18.80
2017-09-06T14:44:38.721Z,18.80
2017-09-06T14:47:06.303Z,18.70
2017-09-06T14:49:33.861Z,18.70
2017-09-06T14:52:01.466Z,18.70
2017-09-06T14:54:29.040Z,18.90
2017-09-06T14:56:56.657Z,18.80
2017-09-06T14:59:24.263Z,18.70
2017-09-06T15:01:52.600Z,18.50
2017-09-06T15:04:20.176Z,18.50
2017-09-06T15:06:47.752Z,18.50
2017-09-06T15:09:15.356Z,18.60
2017-09-06T15:11:42.941Z,18.50
2017-09-06T15:14:10.537Z,18.50
2017-09-06T15:16:38.144Z,18.40
2017-09-06T15:19:05.726Z,18.40
2017-09-06T15:21:33.315Z,18.40
2017-09-06T15:24:00.906Z,18.40
2017-09-06T15:26:29.252Z,18.40
2017-09-06T15:28:56.820Z,18.30
2017-09-06T15:31:24.384Z,18.40
2017-09-06T15:33:51.979Z,18.30
2017-09-06T15:36:19.537Z,18.30
2017-09-06T15:38:47.112Z,18.30
2017-09-06T15:41:14.671Z,18.20
2017-09-06T15:43:42.276Z,18.10
2017-09-06T15:46:09.832Z,18.00
2017-09-06T15:48:37.385Z,18.00
2017-09-06T15:51:04.975Z,17.90
2017-09-06T15:53:32.543Z,17.90
2017-09-06T15:56:00.143Z,18.00
2017-09-06T15:58:27.729Z,17.90
2017-09-06T16:00:55.323Z,17.90
2017-09-06T16:03:22.882Z,18.00
2017-09-06T16:05:50.515Z,18.10
2017-09-06T16:08:18.102Z,18.10
2017-09-06T16:10:45.684Z,17.90
2017-09-06T16:13:13.285Z,17.80
2017-09-06T16:15:40.875Z,17.70
2017-09-06T16:18:08.479Z,17.60
2017-09-06T16:20:36.040Z,17.30
2017-09-06T16:23:03.665Z,16.80
2017-09-06T16:25:31.249Z,16.40
2017-09-06T16:27:58.915Z,16.00
2017-09-06T16:30:26.654Z,15.80
2017-09-06T16:32:54.248Z,15.60
2017-09-06T16:35:21.890Z,15.40
2017-09-06T16:37:49.511Z,15.40
2017-09-06T16:40:17.117Z,15.50
2017-09-06T16:42:44.705Z,15.50
2017-09-06T16:45:12.298Z,15.50
2017-09-06T16:47:39.889Z,15.50
2017-09-06T16:50:07.532Z,15.30
2017-09-06T16:52:35.107Z,15.40
2017-09-06T16:55:02.711Z,15.40
2017-09-06T16:57:30.315Z,15.40
2017-09-06T16:59:57.883Z,15.40
2017-09-06T17:02:25.508Z,15.40
2017-09-06T17:04:53.115Z,15.40
2017-09-06T17:07:20.708Z,15.40
2017-09-06T17:09:48.312Z,15.40
2017-09-06T17:12:15.886Z,15.40
2017-09-06T17:14:43.536Z,15.50
2017-09-06T17:17:11.129Z,15.60
2017-09-06T17:19:38.735Z,15.50
2017-09-06T17:22:06.293Z,15.50
2017-09-06T17:24:33.900Z,15.50
2017-09-06T17:27:01.470Z,15.50
2017-09-06T17:29:29.051Z,15.50
2017-09-06T17:31:56.642Z,15.50
2017-09-06T17:34:24.267Z,15.50
2017-09-06T17:36:51.913Z,15.60
2017-09-06T17:39:19.504Z,15.60
2017-09-06T17:41:47.135Z,15.50
2017-09-06T17:44:14.705Z,15.50
2017-09-06T17:46:42.331Z,15.40
2017-09-06T17:49:09.927Z,15.30
2017-09-06T17:51:37.528Z,15.30
2017-09-06T17:54:05.116Z,15.30
2017-09-06T17:56:32.751Z,15.20
2017-09-06T17:59:00.361Z,15.20
2017-09-06T18:01:28.722Z,15.10
2017-09-06T18:03:56.341Z,15.00
2017-09-06T18:06:23.931Z,15.00
2017-09-06T18:08:51.526Z,14.90
2017-09-06T18:11:19.115Z,15.00
2017-09-06T18:13:46.762Z,14.90
2017-09-06T18:16:14.333Z,14.90
2017-09-06T18:18:41.898Z,14.80
2017-09-06T18:21:09.507Z,14.80
2017-09-06T18:23:37.069Z,14.80
2017-09-06T18:26:04.683Z,14.80
2017-09-06T18:28:32.259Z,14.80
2017-09-06T18:30:59.830Z,14.80
2017-09-06T18:33:27.429Z,14.70
2017-09-06T18:35:55.018Z,14.80
2017-09-06T18:38:22.630Z,14.80
2017-09-06T18:40:50.204Z,14.80
2017-09-06T18:43:17.856Z,14.80
2017-09-06T18:45:45.452Z,14.80
2017-09-06T18:48:13.031Z,14.80
2017-09-06T18:50:40.644Z,14.90
2017-09-06T18:53:08.235Z,14.90
2017-09-06T18:55:35.849Z,14.90
2017-09-06T18:58:03.436Z,14.90
2017-09-06T19:00:31.002Z,15.00
2017-09-06T19:02:58.613Z,15.00
2017-09-06T19:05:26.172Z,14.90
2017-09-06T19:07:53.784Z,15.00
2017-09-06T19:10:21.368Z,15.00
2017-09-06T19:12:48.934Z,14.90
2017-09-06T19:15:16.536Z,14.90
2017-09-06T19:17:44.096Z,14.90
2017-09-06T19:20:11.682Z,14.80
2017-09-06T19:22:39.259Z,14.60
2017-09-06T19:25:06.863Z,14.50
2017-09-06T19:27:34.429Z,14.50
2017-09-06T19:30:02.786Z,14.30
2017-09-06T19:32:30.387Z,14.30
2017-09-06T19:34:57.976Z,14.30
2017-09-06T19:37:25.557Z,14.20
2017-09-06T19:39:53.145Z,14.20
2017-09-06T19:42:20.751Z,14.10
2017-09-06T19:44:48.366Z,14.10
2017-09-06T19:47:15.960Z,14.00
2017-09-06T19:49:43.540Z,13.80
2017-09-06T19:52:11.125Z,13.70
2017-09-06T19:54:38.708Z,13.60
2017-09-06T19:57:06.292Z,13.50
2017-09-06T19:59:33.907Z,13.40
2017-09-06T20:02:01.505Z,13.50
2017-09-06T20:04:29.099Z,13.40
2017-09-06T20:06:56.696Z,13.40
2017-09-06T20:09:24.322Z,13.40
2017-09-06T20:11:51.950Z,13.50
2017-09-06T20:14:19.520Z,13.50
2017-09-06T20:16:47.132Z,13.60
2017-09-06T20:19:14.744Z,13.60
2017-09-06T20:21:42.331Z,13.60
2017-09-06T20:24:09.906Z,13.70
